createdAt,value
2022-12-29T00:01:39.189Z,1.90
2022-12-29T00:04:15.191Z,1.70
2022-12-29T00:06:45.244Z,1.90
2022-12-29T00:09:15.996Z,1.97
2022-12-29T00:11:45.905Z,1.70
2022-12-29T00:14:28.812Z,1.67
2022-12-29T00:19:43.220Z,1.70
2022-12-29T00:22:26.382Z,1.40
2022-12-29T00:25:08.314Z,1.77
2022-12-29T00:27:50.232Z,1.63
2022-12-29T00:30:33.940Z,1.60
2022-12-29T00:33:16.354Z,1.67
2022-12-29T00:35:59.516Z,1.63
2022-12-29T00:38:42.303Z,1.90
2022-12-29T00:41:24.234Z,1.58
2022-12-29T00:44:10.964Z,2.20
2022-12-29T00:46:42.244Z,2.20
2022-12-29T00:49:26.066Z,1.90
2022-12-29T00:51:58.711Z,1.90
2022-12-29T00:54:28.387Z,1.70
2022-12-29T00:56:57.836Z,1.90
2022-12-29T00:59:27.790Z,2.70
2022-12-29T01:02:00.943Z,2.00
2022-12-29T01:04:32.091Z,1.67
2022-12-29T01:07:04.989Z,1.73
2022-12-29T01:09:48.096Z,1.83
2022-12-29T01:12:17.768Z,2.27
2022-12-29T01:14:47.784Z,2.00
2022-12-29T01:17:17.144Z,1.80
2022-12-29T01:19:47.439Z,2.37
2022-12-29T01:22:19.383Z,2.17
2022-12-29T01:24:48.736Z,2.10
2022-12-29T01:27:18.084Z,1.87
2022-12-29T01:29:47.634Z,2.17
2022-12-29T01:32:17.070Z,1.63
2022-12-29T01:34:47.554Z,2.10
2022-12-29T01:37:19.569Z,1.63
2022-12-29T01:39:49.180Z,1.88
2022-12-29T01:42:21.187Z,1.60
2022-12-29T01:44:56.393Z,1.40
2022-12-29T01:47:39.316Z,1.47
2022-12-29T01:50:11.718Z,1.55
2022-12-29T01:52:46.957Z,1.50
2022-12-29T01:55:16.689Z,1.37
2022-12-29T01:57:53.011Z,1.45
2022-12-29T02:00:22.853Z,1.50
2022-12-29T02:02:56.273Z,1.67
2022-12-29T02:05:31.687Z,1.40
2022-12-29T02:08:04.834Z,1.73
2022-12-29T02:10:38.823Z,1.37
2022-12-29T02:13:08.261Z,1.87
2022-12-29T02:15:50.147Z,1.60
2022-12-29T02:18:30.064Z,1.53
2022-12-29T02:21:49.190Z,1.47
2022-12-29T02:24:44.581Z,1.60
2022-12-29T02:27:35.271Z,1.57
2022-12-29T02:30:21.911Z,1.40
2022-12-29T02:33:03.264Z,1.50
2022-12-29T02:35:39.839Z,1.63
2022-12-29T02:38:20.902Z,1.20
2022-12-29T02:41:01.111Z,1.50
2022-12-29T02:43:39.238Z,1.70
2022-12-29T02:46:19.835Z,1.20
2022-12-29T02:48:59.498Z,1.50
2022-12-29T02:51:35.746Z,1.30
2022-12-29T02:54:18.432Z,1.63
2022-12-29T02:56:47.936Z,1.63
2022-12-29T02:59:17.886Z,1.60
2022-12-29T03:02:19.666Z,1.83
2022-12-29T03:05:08.330Z,1.57
2022-12-29T03:07:47.155Z,2.03
2022-12-29T03:10:28.742Z,1.90
2022-12-29T03:13:17.823Z,1.60
2022-12-29T03:16:06.706Z,1.40
2022-12-29T03:18:44.663Z,1.80
2022-12-29T03:21:23.253Z,1.47
2022-12-29T03:23:53.277Z,1.43
2022-12-29T03:26:24.501Z,1.33
2022-12-29T03:28:58.466Z,1.17
2022-12-29T03:31:32.042Z,1.53
2022-12-29T03:34:03.373Z,1.13
2022-12-29T03:36:42.734Z,1.47
2022-12-29T03:39:15.985Z,1.47
2022-12-29T03:41:48.178Z,1.30
2022-12-29T03:44:17.610Z,1.13
2022-12-29T03:46:47.033Z,1.23
2022-12-29T03:49:16.499Z,1.13
2022-12-29T03:51:51.999Z,1.33
2022-12-29T03:54:21.729Z,1.27
2022-12-29T03:56:51.171Z,1.30
2022-12-29T03:59:27.399Z,1.20
2022-12-29T04:01:56.885Z,1.20
2022-12-29T04:04:26.316Z,1.70
2022-12-29T04:06:58.358Z,1.00
2022-12-29T04:09:27.789Z,1.20
2022-12-29T04:11:57.811Z,0.77
2022-12-29T04:14:27.349Z,0.90
2022-12-29T04:16:56.803Z,1.50
2022-12-29T04:19:26.504Z,0.90
2022-12-29T04:21:58.409Z,0.97
2022-12-29T04:24:27.899Z,0.90
2022-12-29T04:26:57.622Z,1.20
2022-12-29T04:29:34.278Z,0.73
2022-12-29T04:32:26.268Z,0.90
2022-12-29T04:34:57.761Z,0.90
2022-12-29T04:37:29.770Z,1.03
2022-12-29T04:40:00.503Z,0.90
2022-12-29T04:42:30.826Z,0.83
2022-12-29T04:45:00.256Z,0.80
2022-12-29T04:47:58.582Z,0.80
2022-12-29T04:50:47.912Z,0.80
2022-12-29T04:53:22.619Z,1.00
2022-12-29T04:55:53.789Z,0.80
2022-12-29T04:58:24.411Z,0.90
2022-12-29T05:00:55.368Z,1.37
2022-12-29T05:03:27.589Z,0.73
2022-12-29T05:05:58.488Z,1.00
2022-12-29T05:08:30.540Z,1.20
2022-12-29T05:11:02.485Z,1.10
2022-12-29T05:13:31.853Z,1.00
2022-12-29T05:16:01.331Z,0.80
2022-12-29T05:18:30.958Z,1.00
2022-12-29T05:21:01.957Z,0.80
2022-12-29T05:23:34.197Z,0.90
2022-12-29T05:26:08.084Z,0.80
2022-12-29T05:28:53.791Z,1.03
2022-12-29T05:31:23.279Z,0.90
2022-12-29T05:33:52.744Z,0.70
2022-12-29T05:36:22.565Z,1.20
2022-12-29T05:38:58.779Z,0.63
2022-12-29T05:41:28.338Z,0.70
2022-12-29T05:44:18.350Z,0.80
2022-12-29T05:47:16.813Z,0.77
2022-12-29T05:49:53.916Z,0.83
2022-12-29T05:52:32.528Z,1.30
2022-12-29T05:55:04.496Z,0.90
2022-12-29T05:57:34.924Z,0.73
2022-12-29T06:00:14.291Z,0.70
2022-12-29T06:02:47.771Z,0.80
2022-12-29T06:05:18.904Z,0.60
2022-12-29T06:07:48.436Z,0.80
2022-12-29T06:10:22.320Z,0.83
2022-12-29T06:13:02.298Z,1.13
2022-12-29T06:15:33.983Z,0.88
2022-12-29T06:18:03.590Z,0.80
2022-12-29T06:20:32.998Z,0.80
2022-12-29T06:23:02.432Z,0.87
2022-12-29T06:25:36.902Z,0.83
2022-12-29T06:28:08.076Z,0.90
2022-12-29T06:30:39.679Z,1.03
2022-12-29T06:33:10.016Z,1.10
2022-12-29T06:35:39.915Z,1.30
2022-12-29T06:38:09.345Z,0.93
2022-12-29T06:40:42.299Z,1.10
2022-12-29T06:43:25.141Z,1.10
2022-12-29T06:45:54.582Z,1.50
2022-12-29T06:48:23.909Z,1.30
2022-12-29T06:50:53.254Z,1.13
2022-12-29T06:53:22.641Z,1.00
2022-12-29T06:55:54.610Z,1.30
2022-12-29T06:58:24.009Z,1.25
2022-12-29T07:00:53.427Z,1.10
2022-12-29T07:03:22.866Z,0.80
2022-12-29T07:05:52.315Z,0.83
2022-12-29T07:08:21.754Z,0.73
2022-12-29T07:10:53.688Z,0.70
2022-12-29T07:13:23.166Z,0.55
2022-12-29T07:15:52.533Z,0.80
2022-12-29T07:18:21.917Z,0.50
2022-12-29T07:20:51.495Z,0.70
2022-12-29T07:23:20.868Z,0.80
2022-12-29T07:25:50.252Z,0.77
2022-12-29T07:28:22.201Z,0.70
2022-12-29T07:30:51.546Z,0.28
2022-12-29T07:33:20.955Z,0.50
2022-12-29T07:35:50.765Z,0.80
2022-12-29T07:38:20.270Z,0.77
2022-12-29T07:40:49.857Z,0.60
2022-12-29T07:43:21.796Z,0.70
2022-12-29T07:46:14.565Z,0.60
2022-12-29T07:48:59.329Z,0.60
2022-12-29T07:51:28.744Z,0.60
2022-12-29T07:53:58.109Z,0.67
2022-12-29T07:56:27.450Z,0.30
2022-12-29T07:58:59.476Z,0.87
2022-12-29T08:01:29.309Z,0.70
2022-12-29T08:03:58.832Z,0.63
2022-12-29T08:06:29.668Z,0.67
2022-12-29T08:09:04.089Z,0.80
2022-12-29T08:11:37.842Z,0.70
2022-12-29T08:14:09.833Z,0.90
2022-12-29T08:16:39.248Z,0.80
2022-12-29T08:19:08.651Z,0.97
2022-12-29T08:21:38.017Z,1.00
2022-12-29T08:24:08.095Z,0.87
2022-12-29T08:26:37.627Z,0.90
2022-12-29T08:29:09.617Z,1.00
2022-12-29T08:31:39.097Z,0.93
2022-12-29T08:34:08.504Z,1.03
2022-12-29T08:36:37.864Z,0.90
2022-12-29T08:39:07.777Z,1.10
2022-12-29T08:41:37.196Z,0.90
2022-12-29T08:44:09.631Z,0.80
2022-12-29T08:46:39.080Z,1.10
2022-12-29T08:49:08.559Z,1.00
2022-12-29T08:51:37.941Z,1.07
2022-12-29T08:54:07.401Z,1.17
2022-12-29T08:56:37.191Z,1.43
2022-12-29T08:59:09.823Z,1.60
2022-12-29T09:01:41.724Z,0.93
2022-12-29T09:04:16.548Z,1.20
2022-12-29T09:06:47.389Z,1.30
2022-12-29T09:09:17.007Z,1.37
2022-12-29T09:11:47.049Z,1.70
2022-12-29T09:14:19.151Z,1.90
2022-12-29T09:17:01.123Z,2.00
2022-12-29T09:19:30.494Z,1.63
2022-12-29T09:21:59.852Z,1.53
2022-12-29T09:24:29.234Z,2.23
2022-12-29T09:26:58.618Z,1.30
2022-12-29T09:29:30.567Z,1.53
2022-12-29T09:31:59.943Z,1.70
2022-12-29T09:34:29.255Z,1.70
2022-12-29T09:36:59.057Z,1.33
2022-12-29T09:39:28.643Z,1.20
2022-12-29T09:42:10.268Z,1.57
2022-12-29T09:44:55.502Z,1.60
2022-12-29T09:47:27.431Z,1.40
2022-12-29T09:50:00.598Z,1.25
2022-12-29T09:52:35.138Z,1.30
2022-12-29T09:55:13.597Z,1.20
2022-12-29T09:57:49.149Z,1.00
2022-12-29T10:00:23.230Z,1.23
2022-12-29T10:02:55.568Z,1.20
2022-12-29T10:05:34.323Z,1.40
2022-12-29T10:08:20.953Z,1.47
2022-12-29T10:10:58.622Z,1.63
2022-12-29T10:13:38.526Z,1.30
2022-12-29T10:16:16.346Z,1.07
2022-12-29T10:19:08.166Z,1.33
2022-12-29T10:21:49.535Z,1.47
2022-12-29T10:24:22.747Z,1.20
2022-12-29T10:26:55.417Z,1.30
2022-12-29T10:29:32.222Z,1.60
2022-12-29T10:32:08.481Z,1.40
2022-12-29T10:34:41.290Z,1.40
2022-12-29T10:39:51.620Z,1.50
2022-12-29T10:42:30.021Z,1.40
2022-12-29T10:45:00.981Z,1.40
2022-12-29T10:47:42.094Z,1.60
2022-12-29T10:50:15.610Z,1.37
2022-12-29T10:52:45.260Z,1.50
2022-12-29T10:55:19.133Z,1.73
2022-12-29T10:57:50.553Z,1.40
2022-12-29T11:00:22.714Z,1.60
2022-12-29T11:03:33.318Z,1.42
2022-12-29T11:06:09.324Z,1.30
2022-12-29T11:08:42.160Z,1.30
2022-12-29T11:11:13.585Z,1.70
2022-12-29T11:13:51.738Z,1.47
2022-12-29T11:16:31.755Z,1.50
2022-12-29T11:19:04.209Z,1.73
2022-12-29T11:21:41.220Z,1.50
2022-12-29T11:24:23.711Z,1.53
2022-12-29T11:26:58.402Z,2.10
2022-12-29T11:29:30.255Z,1.70
2022-12-29T11:32:01.370Z,1.40
2022-12-29T11:34:36.530Z,1.70
2022-12-29T11:37:07.953Z,1.47
2022-12-29T11:39:43.070Z,1.83
2022-12-29T11:42:19.376Z,1.70
2022-12-29T11:44:50.536Z,1.60
2022-12-29T11:47:32.043Z,1.40
2022-12-29T11:50:06.066Z,1.30
2022-12-29T11:52:40.514Z,1.50
2022-12-29T11:55:23.036Z,1.30
2022-12-29T11:57:55.716Z,1.20
2022-12-29T12:00:27.367Z,1.30
2022-12-29T12:03:00.492Z,1.60
2022-12-29T12:05:41.264Z,1.20
2022-12-29T12:08:21.104Z,1.23
2022-12-29T12:10:59.568Z,1.40
2022-12-29T12:13:33.713Z,1.50
2022-12-29T12:16:09.847Z,1.27
2022-12-29T12:18:46.068Z,1.37
2022-12-29T12:21:28.563Z,1.27
2022-12-29T12:24:11.086Z,1.40
2022-12-29T12:26:46.483Z,1.63
2022-12-29T12:29:19.909Z,1.40
2022-12-29T12:31:54.673Z,1.10
2022-12-29T12:34:31.138Z,1.37
2022-12-29T12:37:41.438Z,1.10
2022-12-29T12:40:39.275Z,1.93
2022-12-29T12:43:31.519Z,1.20
2022-12-29T12:46:17.108Z,1.10
2022-12-29T12:49:01.345Z,1.40
2022-12-29T12:51:38.282Z,1.43
2022-12-29T12:54:21.892Z,1.53
2022-12-29T12:56:59.476Z,1.77
2022-12-29T12:59:41.429Z,1.47
2022-12-29T13:02:24.305Z,1.73
2022-12-29T13:07:44.047Z,1.47
2022-12-29T13:10:30.132Z,1.20
2022-12-29T13:13:13.397Z,1.40
2022-12-29T13:15:50.954Z,1.70
2022-12-29T13:18:30.273Z,1.50
2022-12-29T13:21:07.745Z,1.43
2022-12-29T13:23:42.736Z,1.40
2022-12-29T13:26:21.417Z,1.50
2022-12-29T13:28:58.609Z,1.73
2022-12-29T13:31:36.891Z,1.40
2022-12-29T13:34:14.552Z,1.43
2022-12-29T13:36:47.775Z,2.00
2022-12-29T13:39:22.960Z,2.07
2022-12-29T13:41:57.072Z,1.73
2022-12-29T13:44:36.426Z,1.37
2022-12-29T13:47:19.091Z,1.10
2022-12-29T13:49:49.074Z,1.20
2022-12-29T13:52:24.988Z,1.40
2022-12-29T13:55:05.909Z,1.40
2022-12-29T13:57:49.392Z,1.47
2022-12-29T14:00:21.633Z,1.40
2022-12-29T14:03:24.881Z,1.58
2022-12-29T14:06:15.440Z,1.53
2022-12-29T14:08:48.200Z,1.40
2022-12-29T14:11:20.382Z,1.60
2022-12-29T14:13:52.635Z,1.58
2022-12-29T14:16:36.764Z,1.58
2022-12-29T14:19:16.609Z,1.90
2022-12-29T14:21:55.155Z,1.60
2022-12-29T14:24:42.767Z,1.60
2022-12-29T14:27:42.244Z,2.03
2022-12-29T14:30:41.590Z,1.50
2022-12-29T14:33:18.458Z,1.60
2022-12-29T14:35:50.811Z,1.97
2022-12-29T14:38:23.427Z,1.67
2022-12-29T14:40:54.040Z,2.05
2022-12-29T14:43:29.871Z,1.60
2022-12-29T14:46:03.101Z,2.30
2022-12-29T14:48:46.503Z,2.40
2022-12-29T14:51:34.254Z,1.80
2022-12-29T14:54:03.869Z,1.60
2022-12-29T14:56:35.187Z,1.87
2022-12-29T14:59:06.503Z,2.00
2022-12-29T15:01:44.316Z,1.90
2022-12-29T15:04:23.124Z,2.67
2022-12-29T15:06:54.059Z,1.77
2022-12-29T15:09:31.995Z,1.40
2022-12-29T15:12:11.066Z,1.80
2022-12-29T15:14:52.310Z,1.40
2022-12-29T15:17:30.082Z,1.60
2022-12-29T15:20:03.590Z,1.67
2022-12-29T15:22:34.324Z,2.10
2022-12-29T15:25:03.771Z,2.00
2022-12-29T15:27:33.447Z,1.50
2022-12-29T15:30:08.501Z,2.20
2022-12-29T15:32:44.240Z,1.73
2022-12-29T15:35:31.954Z,1.90
2022-12-29T15:38:04.290Z,1.80
2022-12-29T15:40:35.916Z,1.83
2022-12-29T15:43:20.478Z,1.80
2022-12-29T15:45:49.936Z,1.83
2022-12-29T15:48:22.652Z,1.90
2022-12-29T15:53:29.537Z,1.73
2022-12-29T15:56:03.518Z,1.90
2022-12-29T15:58:34.544Z,1.90
2022-12-29T16:01:05.473Z,2.23
2022-12-29T16:03:40.434Z,2.60
2022-12-29T16:06:31.243Z,2.03
2022-12-29T16:09:03.715Z,2.63
2022-12-29T16:11:38.696Z,1.80
2022-12-29T16:14:13.270Z,2.03
2022-12-29T16:16:44.990Z,2.10
2022-12-29T16:19:17.866Z,1.90
2022-12-29T16:21:50.296Z,2.80
2022-12-29T16:24:22.452Z,2.05
2022-12-29T16:26:54.494Z,2.15
2022-12-29T16:29:25.423Z,2.08
2022-12-29T16:32:01.937Z,2.10
2022-12-29T16:34:33.895Z,2.43
2022-12-29T16:37:07.224Z,1.90
2022-12-29T16:39:40.259Z,2.33
2022-12-29T16:42:38.033Z,2.43
2022-12-29T16:45:47.886Z,2.23
2022-12-29T16:48:23.555Z,2.47
2022-12-29T16:50:53.390Z,2.10
2022-12-29T16:53:29.817Z,2.07
2022-12-29T16:56:05.861Z,1.80
2022-12-29T16:58:36.286Z,1.73
2022-12-29T17:01:19.858Z,2.20
2022-12-29T17:03:53.636Z,1.77
2022-12-29T17:06:25.071Z,1.80
2022-12-29T17:08:57.788Z,1.97
2022-12-29T17:14:26.360Z,1.90
2022-12-29T17:16:55.916Z,1.53
2022-12-29T17:19:31.830Z,1.90
2022-12-29T17:22:02.301Z,1.57
2022-12-29T17:24:34.566Z,1.57
2022-12-29T17:27:04.235Z,1.52
2022-12-29T17:29:37.313Z,2.50
2022-12-29T17:32:10.006Z,1.77
2022-12-29T17:34:39.554Z,1.80
2022-12-29T17:37:27.678Z,1.80
2022-12-29T17:39:59.721Z,1.70
2022-12-29T17:42:30.303Z,1.70
2022-12-29T17:44:59.808Z,1.90
2022-12-29T17:47:29.346Z,1.50
2022-12-29T17:49:58.817Z,2.00
2022-12-29T17:52:28.184Z,1.90
2022-12-29T17:55:01.076Z,1.70
2022-12-29T17:57:30.434Z,2.10
2022-12-29T17:59:59.834Z,1.60
2022-12-29T18:02:31.987Z,1.70
2022-12-29T18:05:02.304Z,1.90
2022-12-29T18:07:36.069Z,1.57
2022-12-29T18:10:09.494Z,1.73
2022-12-29T18:12:42.290Z,1.40
2022-12-29T18:17:49.693Z,1.23
2022-12-29T18:20:19.655Z,1.83
2022-12-29T18:22:49.038Z,1.80
2022-12-29T18:25:29.844Z,1.80
2022-12-29T18:27:59.234Z,1.90
2022-12-29T18:30:28.575Z,1.57
2022-12-29T18:32:58.186Z,1.50
2022-12-29T18:35:33.227Z,1.30
2022-12-29T18:38:02.615Z,1.57
2022-12-29T18:40:34.582Z,1.50
2022-12-29T18:43:04.047Z,1.40
2022-12-29T18:45:35.183Z,1.07
2022-12-29T18:48:04.585Z,1.27
2022-12-29T18:50:34.081Z,1.10
2022-12-29T18:53:04.330Z,1.40
2022-12-29T18:55:36.537Z,1.70
2022-12-29T18:58:05.918Z,1.77
2022-12-29T19:00:35.339Z,2.17
2022-12-29T19:03:05.105Z,1.73
2022-12-29T19:05:39.282Z,2.00
2022-12-29T19:08:09.351Z,1.70
2022-12-29T19:10:42.632Z,2.20
2022-12-29T19:13:17.169Z,1.90
2022-12-29T19:15:47.332Z,2.10
2022-12-29T19:21:11.628Z,1.77
2022-12-29T19:23:41.217Z,3.70
2022-12-29T19:26:29.629Z,2.20
2022-12-29T19:28:59.309Z,2.00
2022-12-29T19:31:28.809Z,2.20
2022-12-29T19:33:58.317Z,2.37
2022-12-29T19:36:27.883Z,1.80
2022-12-29T19:38:57.921Z,2.17
2022-12-29T19:41:29.995Z,2.43
2022-12-29T19:43:59.404Z,1.80
2022-12-29T19:46:28.866Z,2.20
2022-12-29T19:48:59.184Z,1.77
2022-12-29T19:51:29.293Z,1.80
2022-12-29T19:53:58.791Z,2.07
2022-12-29T19:56:30.748Z,1.93
2022-12-29T19:59:00.268Z,1.70
2022-12-29T20:01:29.861Z,1.53
2022-12-29T20:04:00.613Z,1.20
2022-12-29T20:06:30.021Z,1.20
2022-12-29T20:08:59.406Z,1.70
2022-12-29T20:11:31.499Z,1.37
2022-12-29T20:14:00.936Z,2.10
2022-12-29T20:16:30.453Z,1.50
2022-12-29T20:18:59.898Z,1.40
2022-12-29T20:21:29.253Z,1.47
2022-12-29T20:23:58.993Z,1.10
2022-12-29T20:26:32.313Z,1.20
2022-12-29T20:29:01.802Z,1.10
2022-12-29T20:31:33.434Z,1.30
2022-12-29T20:34:02.993Z,1.40
2022-12-29T20:36:34.574Z,1.27
2022-12-29T20:39:08.647Z,0.93
2022-12-29T20:41:40.556Z,1.50
2022-12-29T20:44:09.918Z,1.20
2022-12-29T20:46:43.690Z,1.00
2022-12-29T20:49:14.257Z,1.00
2022-12-29T20:52:06.306Z,1.17
2022-12-29T20:54:39.205Z,2.00
2022-12-29T20:57:11.813Z,2.17
2022-12-29T20:59:41.320Z,3.42
2022-12-29T21:02:21.646Z,1.70
2022-12-29T21:05:23.450Z,2.50
2022-12-29T21:07:41.812Z,1.47
2022-12-29T21:10:11.239Z,2.73
2022-12-29T21:12:43.251Z,1.50
2022-12-29T21:15:14.442Z,1.20
2022-12-29T21:17:44.241Z,1.60
2022-12-29T21:20:19.710Z,1.80
2022-12-29T21:22:50.060Z,1.70
2022-12-29T21:25:19.666Z,1.60
2022-12-29T21:27:51.647Z,1.40
2022-12-29T21:30:21.226Z,2.45
2022-12-29T21:32:50.625Z,1.70
2022-12-29T21:35:20.757Z,1.80
2022-12-29T21:37:50.132Z,1.80
2022-12-29T21:40:21.041Z,1.97
2022-12-29T21:42:53.008Z,1.90
2022-12-29T21:45:25.935Z,2.25
2022-12-29T21:48:08.535Z,1.90
2022-12-29T21:51:01.841Z,2.05
2022-12-29T21:53:43.877Z,2.30
2022-12-29T21:56:16.529Z,2.50
2022-12-29T21:59:03.789Z,2.15
2022-12-29T22:01:47.472Z,2.40
2022-12-29T22:04:31.313Z,2.40
2022-12-29T22:07:13.454Z,2.33
2022-12-29T22:09:55.359Z,2.35
2022-12-29T22:12:37.254Z,2.30
2022-12-29T22:15:10.364Z,3.03
2022-12-29T22:17:44.997Z,2.33
2022-12-29T22:20:17.826Z,2.30
2022-12-29T22:22:47.202Z,2.63
2022-12-29T22:25:17.049Z,2.30
2022-12-29T22:27:46.496Z,3.07
2022-12-29T22:30:18.997Z,2.80
2022-12-29T22:32:48.584Z,2.53
2022-12-29T22:35:18.190Z,2.93
2022-12-29T22:37:47.763Z,2.83
2022-12-29T22:40:17.162Z,2.43
2022-12-29T22:42:46.544Z,2.60
2022-12-29T22:45:18.574Z,2.27
2022-12-29T22:47:47.953Z,2.50
2022-12-29T22:50:17.365Z,2.63
2022-12-29T22:52:46.785Z,2.30
2022-12-29T22:55:16.174Z,2.77
2022-12-29T22:57:45.589Z,2.00
2022-12-29T23:00:18.335Z,2.77
2022-12-29T23:05:17.611Z,3.53
2022-12-29T23:07:47.129Z,2.73
2022-12-29T23:10:16.565Z,3.00
2022-12-29T23:12:46.065Z,2.40
2022-12-29T23:15:18.551Z,2.47
2022-12-29T23:17:48.119Z,2.60
2022-12-29T23:20:17.567Z,2.70
2022-12-29T23:22:47.005Z,2.43
2022-12-29T23:25:16.511Z,2.90
2022-12-29T23:27:45.925Z,3.10
2022-12-29T23:30:18.215Z,2.70
2022-12-29T23:32:47.658Z,2.72
2022-12-29T23:35:17.372Z,3.30
2022-12-29T23:37:46.821Z,2.67
2022-12-29T23:40:16.345Z,2.70
2022-12-29T23:42:45.741Z,3.30
2022-12-29T23:45:17.870Z,2.90
2022-12-29T23:47:47.271Z,2.90
2022-12-29T23:50:16.774Z,3.23
2022-12-29T23:52:46.240Z,2.80
2022-12-29T23:55:15.621Z,3.50
2022-12-29T23:57:45.099Z,3.30
